createdAt,value
2023-11-15T00:01:00.664Z,1.20
2023-11-15T00:05:18.377Z,1.45
2023-11-15T00:09:36.064Z,2.53
2023-11-15T00:13:53.942Z,0.80
2023-11-15T00:18:11.563Z,0.70
2023-11-15T00:22:28.904Z,1.10
2023-11-15T00:26:46.314Z,0.77
2023-11-15T00:31:03.984Z,1.30
2023-11-15T00:35:21.316Z,1.15
2023-11-15T00:39:44.254Z,1.90
2023-11-15T00:44:04.575Z,1.35
2023-11-15T00:48:22.072Z,2.70
2023-11-15T00:52:40.037Z,1.90
2023-11-15T00:56:57.439Z,1.13
2023-11-15T01:01:18.549Z,0.98
2023-11-15T01:05:36.150Z,0.70
2023-11-15T01:09:54.608Z,0.50
2023-11-15T01:14:14.873Z,0.30
2023-11-15T01:18:32.608Z,0.82
2023-11-15T01:22:49.887Z,2.88
2023-11-15T01:27:07.398Z,0.63
2023-11-15T01:31:25.214Z,0.40
2023-11-15T01:35:43.191Z,0.53
2023-11-15T01:40:03.055Z,0.82
2023-11-15T01:44:21.187Z,1.65
2023-11-15T01:48:39.048Z,1.88
2023-11-15T01:52:57.033Z,1.40
2023-11-15T01:57:14.869Z,0.40
2023-11-15T02:01:33.162Z,3.93
2023-11-15T02:05:54.142Z,0.98
2023-11-15T02:10:14.947Z,2.60
2023-11-15T02:14:33.175Z,0.60
2023-11-15T02:18:50.635Z,1.35
2023-11-15T02:23:09.528Z,0.40
2023-11-15T02:27:27.340Z,0.68
2023-11-15T02:31:45.257Z,1.45
2023-11-15T02:36:02.599Z,2.07
2023-11-15T02:40:19.980Z,1.75
2023-11-15T02:44:37.451Z,2.38
2023-11-15T02:48:55.119Z,0.82
2023-11-15T02:53:13.035Z,1.55
2023-11-15T02:57:31.026Z,1.27
2023-11-15T03:01:49.317Z,1.07
2023-11-15T03:06:07.633Z,1.27
2023-11-15T03:10:25.310Z,0.60
2023-11-15T03:14:42.695Z,1.10
2023-11-15T03:19:00.576Z,3.10
2023-11-15T03:23:18.266Z,1.15
2023-11-15T03:27:35.772Z,1.50
2023-11-15T03:31:53.092Z,1.50
2023-11-15T03:36:11.059Z,1.17
2023-11-15T03:40:28.702Z,0.80
2023-11-15T03:44:46.065Z,1.45
2023-11-15T03:49:03.746Z,1.63
2023-11-15T03:53:22.872Z,1.27
2023-11-15T03:57:40.356Z,1.80
2023-11-15T04:01:58.207Z,3.60
2023-11-15T04:06:16.351Z,2.63
2023-11-15T04:10:33.892Z,2.67
2023-11-15T04:14:51.338Z,4.57
2023-11-15T04:19:10.487Z,1.42
2023-11-15T04:23:30.818Z,3.67
2023-11-15T04:27:48.210Z,1.65
2023-11-15T04:32:05.644Z,3.20
2023-11-15T04:36:22.980Z,3.63
2023-11-15T04:40:40.377Z,3.03
2023-11-15T04:44:58.304Z,1.80
2023-11-15T04:49:15.695Z,3.47
2023-11-15T04:53:33.027Z,1.63
2023-11-15T04:57:50.485Z,3.25
2023-11-15T05:02:07.995Z,2.75
2023-11-15T05:06:25.315Z,2.67
2023-11-15T05:10:44.890Z,2.95
2023-11-15T05:15:02.153Z,1.58
2023-11-15T05:19:19.741Z,4.47
2023-11-15T05:23:37.246Z,2.60
2023-11-15T05:27:54.565Z,2.30
2023-11-15T05:32:11.924Z,3.40
2023-11-15T05:36:31.368Z,2.13
2023-11-15T05:40:48.649Z,1.98
2023-11-15T05:45:06.741Z,2.08
2023-11-15T05:49:24.234Z,1.98
2023-11-15T05:53:42.954Z,5.32
2023-11-15T05:58:00.765Z,5.97
2023-11-15T06:02:21.327Z,3.20
2023-11-15T06:06:38.648Z,1.85
2023-11-15T06:10:55.893Z,4.00
2023-11-15T06:15:15.446Z,5.07
2023-11-15T06:19:32.951Z,2.67
2023-11-15T06:23:51.993Z,1.10
2023-11-15T06:28:10.080Z,2.88
2023-11-15T06:32:28.381Z,3.10
2023-11-15T06:36:45.916Z,2.05
2023-11-15T06:41:03.709Z,1.55
2023-11-15T06:45:21.240Z,1.10
2023-11-15T06:49:38.927Z,13.88
2023-11-15T06:53:56.722Z,5.55
2023-11-15T06:58:18.192Z,3.07
2023-11-15T07:02:37.006Z,2.20
2023-11-15T07:06:54.949Z,5.10
2023-11-15T07:11:13.490Z,1.30
2023-11-15T07:15:31.952Z,0.85
2023-11-15T07:19:50.074Z,2.97
2023-11-15T07:24:09.951Z,3.38
2023-11-15T07:28:27.288Z,2.33
2023-11-15T07:32:44.834Z,2.17
2023-11-15T07:37:03.656Z,1.40
2023-11-15T07:41:22.096Z,2.40
2023-11-15T07:50:01.133Z,3.88
2023-11-15T07:54:19.658Z,2.83
2023-11-15T07:58:37.045Z,1.73
2023-11-15T08:02:56.515Z,2.45
2023-11-15T08:07:14.273Z,1.83
2023-11-15T08:11:32.114Z,2.85
2023-11-15T08:15:49.987Z,3.53
2023-11-15T08:20:10.690Z,2.77
2023-11-15T08:24:29.163Z,1.92
2023-11-15T08:28:48.226Z,1.67
2023-11-15T08:33:07.067Z,2.47
2023-11-15T08:37:24.726Z,1.48
2023-11-15T08:41:42.932Z,1.92
2023-11-15T08:46:03.858Z,1.23
2023-11-15T08:50:21.772Z,2.30
2023-11-15T08:54:39.171Z,1.40
2023-11-15T08:58:56.652Z,2.25
2023-11-15T09:03:15.490Z,4.00
2023-11-15T09:07:32.812Z,3.13
2023-11-15T09:11:52.329Z,1.80
2023-11-15T09:16:13.860Z,1.70
2023-11-15T09:20:34.069Z,0.90
2023-11-15T09:25:03.919Z,4.10
2023-11-15T09:29:26.661Z,2.45
2023-11-15T09:33:47.939Z,5.85
2023-11-15T09:38:05.433Z,1.83
2023-11-15T09:42:24.191Z,2.00
2023-11-15T09:46:42.016Z,3.47
2023-11-15T09:51:01.228Z,1.50
2023-11-15T09:55:23.616Z,0.63
2023-11-15T09:59:48.092Z,1.92
2023-11-15T10:04:21.796Z,0.80
2023-11-15T10:08:53.900Z,1.27
2023-11-15T10:13:16.965Z,3.67
2023-11-15T10:17:44.616Z,2.63
2023-11-15T10:22:06.438Z,2.13
2023-11-15T10:26:38.531Z,1.77
2023-11-15T10:31:15.713Z,2.10
2023-11-15T10:35:33.712Z,1.08
2023-11-15T10:39:51.234Z,1.37
2023-11-15T10:44:09.569Z,9.57
2023-11-15T10:48:30.933Z,1.83
2023-11-15T10:52:50.963Z,3.25
2023-11-15T10:57:09.466Z,1.92
2023-11-15T11:01:32.472Z,2.03
2023-11-15T11:06:04.606Z,2.80
2023-11-15T11:10:40.158Z,4.53
2023-11-15T11:15:28.272Z,3.00
2023-11-15T11:19:48.277Z,2.45
2023-11-15T11:24:14.403Z,3.70
2023-11-15T11:29:04.183Z,1.38
2023-11-15T11:37:45.407Z,3.85
2023-11-15T11:42:03.616Z,1.83
2023-11-15T11:50:40.111Z,1.20
2023-11-15T11:54:57.485Z,1.92
2023-11-15T11:59:14.964Z,1.95
2023-11-15T12:03:36.973Z,2.80
2023-11-15T12:07:55.899Z,3.22
2023-11-15T12:16:31.635Z,5.90
2023-11-15T12:20:48.988Z,3.70
2023-11-15T12:25:14.672Z,4.10
2023-11-15T12:29:36.738Z,3.80
2023-11-15T12:33:54.317Z,4.40
2023-11-15T12:38:14.395Z,4.45
2023-11-15T12:42:32.370Z,5.50
2023-11-15T12:46:55.378Z,8.17
2023-11-15T12:51:13.508Z,3.88
2023-11-15T12:55:46.944Z,5.07
2023-11-15T13:00:33.007Z,4.82
2023-11-15T13:04:56.129Z,4.22
2023-11-15T13:09:16.813Z,4.32
2023-11-15T13:13:34.409Z,3.58
2023-11-15T13:17:52.604Z,5.82
2023-11-15T13:22:10.028Z,5.40
2023-11-15T13:26:27.728Z,6.97
2023-11-15T13:30:45.089Z,5.30
2023-11-15T13:35:07.076Z,3.47
2023-11-15T13:39:24.855Z,3.55
2023-11-15T13:43:42.306Z,4.20
2023-11-15T13:47:59.687Z,7.65
2023-11-15T13:52:17.553Z,6.38
2023-11-15T13:56:36.266Z,4.63
2023-11-15T14:05:16.384Z,5.68
2023-11-15T14:09:34.891Z,7.13
2023-11-15T14:13:52.533Z,6.22
2023-11-15T14:18:12.092Z,8.55
2023-11-15T14:22:30.214Z,11.13
2023-11-15T14:26:48.131Z,14.57
2023-11-15T14:31:06.134Z,20.40
2023-11-15T14:35:27.074Z,11.95
2023-11-15T14:39:45.276Z,7.30
2023-11-15T14:44:05.184Z,5.47
2023-11-15T14:48:22.766Z,3.47
2023-11-15T14:52:49.949Z,4.78
2023-11-15T14:57:09.066Z,7.03
2023-11-15T15:01:26.808Z,5.40
2023-11-15T15:05:45.065Z,8.27
2023-11-15T15:10:02.596Z,5.90
2023-11-15T15:14:19.941Z,3.75
2023-11-15T15:18:40.097Z,4.80
2023-11-15T15:22:57.436Z,4.25
2023-11-15T15:27:14.973Z,5.43
2023-11-15T15:31:32.302Z,5.97
2023-11-15T15:35:50.061Z,4.45
2023-11-15T15:40:15.592Z,7.80
2023-11-15T15:44:32.955Z,9.93
2023-11-15T15:48:52.301Z,9.75
2023-11-15T15:53:10.816Z,8.40
2023-11-15T15:57:29.223Z,7.47
2023-11-15T16:01:46.946Z,12.40
2023-11-15T16:06:06.010Z,7.83
2023-11-15T16:10:23.515Z,6.63
2023-11-15T16:14:40.744Z,8.25
2023-11-15T16:18:58.283Z,8.07
2023-11-15T16:23:15.977Z,10.60
2023-11-15T16:27:37.185Z,10.65
2023-11-15T16:31:55.218Z,34.75
2023-11-15T16:36:12.568Z,77.28
2023-11-15T16:40:29.911Z,36.00
2023-11-15T16:44:47.815Z,6.20
2023-11-15T16:49:05.195Z,9.43
2023-11-15T16:53:22.552Z,9.77
2023-11-15T16:57:41.199Z,22.77
2023-11-15T17:06:15.950Z,16.33
2023-11-15T17:10:36.177Z,16.85
2023-11-15T17:14:53.580Z,42.95
2023-11-15T17:19:10.931Z,12.48
2023-11-15T17:23:28.580Z,7.47
2023-11-15T17:27:47.377Z,4.75
2023-11-15T17:32:06.587Z,11.63
2023-11-15T17:36:25.723Z,9.20
2023-11-15T17:40:45.499Z,14.43
2023-11-15T17:45:05.000Z,8.70
2023-11-15T17:49:24.116Z,13.27
2023-11-15T17:53:41.452Z,8.70
2023-11-15T17:57:59.446Z,5.63
2023-11-15T18:06:36.963Z,8.27
2023-11-15T18:15:17.330Z,15.10
2023-11-15T18:19:35.223Z,7.57
2023-11-15T18:23:52.548Z,8.85
2023-11-15T18:28:09.897Z,10.35
2023-11-15T18:32:27.177Z,7.00
2023-11-15T18:36:45.459Z,8.27
2023-11-15T18:41:05.748Z,9.75
2023-11-15T18:45:24.018Z,11.23
2023-11-15T18:49:44.398Z,10.32
2023-11-15T18:54:02.677Z,13.27
2023-11-15T18:58:24.443Z,12.95
2023-11-15T19:02:45.941Z,8.55
2023-11-15T19:07:06.687Z,10.35
2023-11-15T19:11:24.591Z,7.53
2023-11-15T19:15:42.063Z,15.63
2023-11-15T19:20:01.960Z,8.17
2023-11-15T19:24:19.810Z,7.72
2023-11-15T19:28:39.182Z,6.93
2023-11-15T19:37:15.698Z,9.43
2023-11-15T19:41:33.627Z,8.38
2023-11-15T19:45:56.150Z,6.85
2023-11-15T19:50:14.428Z,5.50
2023-11-15T19:54:32.783Z,6.18
2023-11-15T19:58:50.943Z,8.93
2023-11-15T20:03:12.298Z,5.93
2023-11-15T20:07:35.184Z,8.60
2023-11-15T20:11:52.588Z,6.75
2023-11-15T20:16:10.294Z,6.55
2023-11-15T20:20:28.662Z,8.73
2023-11-15T20:24:46.832Z,8.43
2023-11-15T20:29:06.999Z,10.88
2023-11-15T20:33:24.577Z,7.22
2023-11-15T20:37:42.570Z,6.95
2023-11-15T20:42:05.620Z,6.10
2023-11-15T20:46:24.223Z,9.60
2023-11-15T20:50:42.068Z,10.43
2023-11-15T20:55:00.693Z,10.65
2023-11-15T20:59:18.293Z,9.73
2023-11-15T21:03:39.178Z,7.35
2023-11-15T21:07:57.658Z,8.20
2023-11-15T21:12:15.066Z,15.52
2023-11-15T21:16:32.524Z,14.10
2023-11-15T21:20:50.424Z,9.30
2023-11-15T21:25:12.899Z,9.10
2023-11-15T21:29:30.611Z,9.68
2023-11-15T21:33:48.409Z,10.65
2023-11-15T21:38:10.759Z,7.05
2023-11-15T21:42:28.276Z,6.78
2023-11-15T21:51:24.895Z,9.60
2023-11-15T21:55:42.517Z,9.73
2023-11-15T22:00:00.019Z,9.65
2023-11-15T22:04:17.522Z,9.85
2023-11-15T22:08:34.982Z,8.25
2023-11-15T22:12:53.254Z,13.55
2023-11-15T22:17:11.219Z,8.63
2023-11-15T22:21:29.593Z,9.50
2023-11-15T22:25:47.815Z,9.20
2023-11-15T22:30:08.191Z,6.03
2023-11-15T22:34:27.300Z,5.35
2023-11-15T22:38:45.451Z,6.57
2023-11-15T22:43:06.883Z,8.32
2023-11-15T22:47:24.145Z,10.80
2023-11-15T22:51:41.697Z,7.00
2023-11-15T22:55:58.909Z,8.52
2023-11-15T23:00:35.112Z,6.47
2023-11-15T23:04:53.681Z,4.50
2023-11-15T23:09:11.837Z,6.90
2023-11-15T23:13:30.172Z,6.10
2023-11-15T23:17:48.916Z,6.85
2023-11-15T23:22:06.899Z,7.53
2023-11-15T23:26:28.916Z,5.80
2023-11-15T23:30:46.230Z,3.47
2023-11-15T23:35:04.239Z,5.50
2023-11-15T23:39:24.532Z,2.47
2023-11-15T23:43:42.589Z,4.00
2023-11-15T23:48:00.141Z,4.05
2023-11-15T23:52:18.953Z,5.20
2023-11-15T23:56:41.886Z,4.03
